Live aus Altenrhein
LIVE
LSZR 242050Z AUTO VRB02KT 9999 BKN060 SCT100 13/11 Q1022
Zeitraffer heute
2017-09-24 00:14:52
LSZR 232150Z AUTO VRB01KT 9999 NSC 13/11 Q1020
Zeitraffer gestern
2017-09-23 00:14:57
LSZR 222150Z AUTO VRB02KT 9999 NCD 11/10 Q1022
Zeitraffer vor 3 Tagen
2017-09-21 00:00:00
LSZR 202150Z AUTO 07003KT 040V100 CAVOK 07/06 Q1023